Terminal Aerodrome Forecast
Issued by NWS Newport/Morehead City, NC

Home | Current Version | Previous Version | Text Only | Print | Product List | Glossary Off
Versions: 1 2 3 4 5 6 7 8 9 10 11 12 13 14 15 16 17 18 19

727
FTUS42 KMHX 150555
TAFEWN
TAF
KEWN 150555Z 1506/1606 23007KT P6SM BKN090
     FM151600 24010G18KT P6SM SCT090
     FM160500 23011KT P6SM FEW015 SCT250 WS020/24040KT=

USA.gov is the U.S. government's official web portal to all federal, state and local government web resources and services.